Time;durP1;ratioP1;P1;durP2;ratioP2;P2;SDS_P1;SDS_P2;PMS_P1;PMS_P2;Temp;Humidity;BMP_temperature;BMP_pressure;BME280_temperature;BME280_humidity;BME280_pressure;Samples;Min_cycle;Max_cycle;Signal;HPM_P1;HPM_P2
2023/07/28 00:00:43;;;;;;;9.35;8.45;;;18.80;99.90;;;;;;5095174;28;20422;-79
2023/07/28 00:03:09;;;;;;;9.88;8.88;;;18.80;99.90;;;;;;5095970;28;20028;-79
2023/07/28 00:05:36;;;;;;;8.80;8.00;;;18.80;99.90;;;;;;5094738;28;20036;-79
2023/07/28 00:08:02;;;;;;;9.75;8.82;;;18.80;99.90;;;;;;5096131;28;20035;-79
2023/07/28 00:10:28;;;;;;;9.25;8.45;;;18.80;99.90;;;;;;5096031;28;20040;-79
2023/07/28 00:12:53;;;;;;;8.50;7.75;;;18.80;99.90;;;;;;5095790;28;20161;-79
2023/07/28 00:15:19;;;;;;;9.65;8.57;;;18.90;99.90;;;;;;5096305;28;20108;-79
2023/07/28 00:17:45;;;;;;;9.02;8.20;;;18.90;99.90;;;;;;5094430;28;20043;-80
2023/07/28 00:20:11;;;;;;;9.75;8.80;;;18.90;99.90;;;;;;5095888;28;20032;-80
2023/07/28 00:22:36;;;;;;;8.98;8.18;;;18.90;99.90;;;;;;5095852;28;20039;-80
2023/07/28 00:25:02;;;;;;;10.23;9.25;;;18.90;99.90;;;;;;5078033;28;20107;-79
2023/07/28 00:27:28;;;;;;;10.18;9.18;;;18.90;99.90;;;;;;5095851;28;20059;-80
2023/07/28 00:29:54;;;;;;;10.82;8.95;;;18.90;99.90;;;;;;5095555;28;20151;-79
2023/07/28 00:32:19;;;;;;;11.00;9.90;;;18.80;99.90;;;;;;5095428;28;20508;-80
2023/07/28 00:34:45;;;;;;;10.80;9.10;;;18.80;99.90;;;;;;5095894;28;20103;-80
2023/07/28 00:37:10;;;;;;;9.75;8.95;;;18.80;99.90;;;;;;5096206;28;20028;-80
2023/07/28 00:39:36;;;;;;;10.52;9.43;;;18.80;99.90;;;;;;5095855;28;20032;-80
2023/07/28 00:42:02;;;;;;;10.90;9.70;;;18.80;99.90;;;;;;5094741;28;20032;-80
2023/07/28 00:44:27;;;;;;;10.32;9.05;;;18.80;99.90;;;;;;5094205;28;20035;-80
2023/07/28 00:46:53;;;;;;;11.45;9.73;;;18.80;99.90;;;;;;5094029;28;20085;-79
2023/07/28 00:49:19;;;;;;;10.55;9.55;;;18.80;99.90;;;;;;5094099;28;20028;-80
2023/07/28 00:51:45;;;;;;;10.35;9.32;;;18.80;99.90;;;;;;5095066;28;20028;-79
2023/07/28 00:54:12;;;;;;;9.65;8.55;;;18.80;99.90;;;;;;5094186;28;20028;-79
2023/07/28 00:56:37;;;;;;;10.57;9.57;;;18.80;99.90;;;;;;5095511;28;20035;-80
2023/07/28 00:59:03;;;;;;;9.52;8.52;;;18.90;99.90;;;;;;5095095;28;20028;-80
2023/07/28 01:01:29;;;;;;;11.13;10.13;;;18.80;99.90;;;;;;5115500;28;20121;-80
2023/07/28 01:03:55;;;;;;;11.07;9.10;;;18.80;99.90;;;;;;5097374;28;20476;-80
2023/07/28 01:06:45;;;;;;;12.00;9.43;;;18.80;99.90;;;;;;5115281;28;20111;-80
2023/07/28 01:09:18;;;;;;;10.50;9.40;;;18.80;99.90;;;;;;5115165;28;20383;-80
2023/07/28 01:11:57;;;;;;;11.13;9.93;;;18.80;99.90;;;;;;5115673;28;20031;-79
2023/07/28 01:14:23;;;;;;;9.98;8.98;;;18.80;99.90;;;;;;5115329;28;20026;-79
2023/07/28 01:16:49;;;;;;;12.18;9.32;;;18.80;99.90;;;;;;5115247;28;20168;-79
2023/07/28 01:19:20;;;;;;;14.25;9.35;;;18.80;99.90;;;;;;5115363;28;20444;-80
2023/07/28 01:22:01;;;;;;;11.13;9.13;;;18.80;99.90;;;;;;5115202;28;20028;-80
2023/07/28 01:25:05;;;;;;;11.35;9.10;;;18.90;99.90;;;;;;5115138;28;20028;-79
2023/07/28 01:27:32;;;;;;;10.55;9.45;;;18.90;99.90;;;;;;5113821;28;20170;-80
2023/07/28 01:29:58;;;;;;;10.82;9.73;;;18.90;99.90;;;;;;5097125;28;20451;-79
2023/07/28 01:32:23;;;;;;;13.30;9.88;;;18.90;99.90;;;;;;5096706;28;20039;-80
2023/07/28 01:34:49;;;;;;;13.10;9.82;;;18.90;99.90;;;;;;5115426;28;20023;-79
2023/07/28 01:37:15;;;;;;;10.77;9.77;;;18.90;99.90;;;;;;5114818;28;20028;-79
2023/07/28 01:39:41;;;;;;;12.20;9.30;;;18.90;99.90;;;;;;5114781;28;20036;-79
2023/07/28 01:42:07;;;;;;;12.50;10.32;;;18.90;99.90;;;;;;5097370;28;20055;-79
2023/07/28 01:44:32;;;;;;;10.65;9.57;;;18.90;99.90;;;;;;5114416;28;20553;-79
2023/07/28 01:46:58;;;;;;;13.02;11.48;;;18.90;99.90;;;;;;5096625;28;20028;-79
2023/07/28 01:49:24;;;;;;;12.15;10.60;;;18.90;99.90;;;;;;5114613;28;20032;-79
2023/07/28 01:51:49;;;;;;;13.60;10.55;;;18.90;99.90;;;;;;5114609;28;20388;-79
2023/07/28 01:54:15;;;;;;;16.55;11.80;;;18.90;99.90;;;;;;5114869;28;20039;-80
2023/07/28 01:56:41;;;;;;;11.73;10.05;;;18.90;99.90;;;;;;5114560;28;20031;-79
2023/07/28 01:59:06;;;;;;;11.48;10.20;;;18.90;99.90;;;;;;5114157;28;20057;-79
2023/07/28 02:01:32;;;;;;;18.23;12.18;;;18.90;99.90;;;;;;5114968;28;20468;-80
2023/07/28 02:03:57;;;;;;;11.68;10.48;;;18.90;99.90;;;;;;5114197;28;20024;-79
2023/07/28 02:06:23;;;;;;;15.23;11.95;;;18.90;99.90;;;;;;5114649;28;20035;-80
2023/07/28 02:08:49;;;;;;;12.70;10.30;;;18.90;99.90;;;;;;5096692;28;20028;-80
2023/07/28 02:11:14;;;;;;;13.40;10.65;;;18.90;99.90;;;;;;5114784;28;20468;-79
2023/07/28 02:13:40;;;;;;;13.25;10.70;;;18.90;99.90;;;;;;5114253;28;20031;-79
2023/07/28 02:16:06;;;;;;;13.23;10.27;;;18.90;99.90;;;;;;5114331;28;20110;-80
2023/07/28 02:18:31;;;;;;;12.88;11.23;;;18.90;99.90;;;;;;5114532;28;20024;-80
2023/07/28 02:20:57;;;;;;;13.60;10.77;;;18.90;99.90;;;;;;5114490;28;20028;-80
2023/07/28 02:23:22;;;;;;;13.65;10.20;;;18.90;99.90;;;;;;5114118;28;20031;-79
2023/07/28 02:25:48;;;;;;;13.00;10.70;;;18.80;99.90;;;;;;5113938;28;20055;-80
2023/07/28 02:28:14;;;;;;;16.70;11.10;;;18.90;99.90;;;;;;5095819;28;20027;-80
2023/07/28 02:30:39;;;;;;;17.02;12.20;;;18.90;99.90;;;;;;5113771;28;20040;-80
2023/07/28 02:33:05;;;;;;;18.42;12.30;;;18.90;99.90;;;;;;5114047;28;20031;-79
2023/07/28 02:35:31;;;;;;;19.95;12.73;;;18.90;99.90;;;;;;5113798;28;20027;-80
2023/07/28 02:37:58;;;;;;;20.48;12.65;;;18.90;99.90;;;;;;5114542;28;20382;-80
2023/07/28 02:40:23;;;;;;;17.42;12.43;;;18.90;99.90;;;;;;5096119;28;20072;-79
2023/07/28 02:42:49;;;;;;;18.80;14.00;;;18.90;99.90;;;;;;5114547;28;20035;-80
2023/07/28 02:45:15;;;;;;;20.15;14.88;;;18.90;99.90;;;;;;5114008;28;20034;-80
2023/07/28 02:47:40;;;;;;;19.33;14.00;;;18.90;99.90;;;;;;5114548;28;20063;-80
2023/07/28 02:50:06;;;;;;;22.02;13.80;;;18.90;99.90;;;;;;5113887;28;20448;-80
2023/07/28 02:52:32;;;;;;;22.27;14.60;;;18.90;99.90;;;;;;5114235;28;20427;-80
2023/07/28 02:54:57;;;;;;;21.38;15.15;;;18.90;99.90;;;;;;5113937;28;20080;-81
2023/07/28 02:57:23;;;;;;;22.50;15.30;;;18.90;99.90;;;;;;5113683;28;20392;-80
2023/07/28 02:59:49;;;;;;;21.85;15.15;;;18.90;99.90;;;;;;5113367;28;20487;-81
2023/07/28 03:02:14;;;;;;;22.48;15.18;;;18.90;99.90;;;;;;5114202;28;20034;-81
2023/07/28 03:04:40;;;;;;;27.45;15.25;;;18.90;99.90;;;;;;5113862;28;20061;-81
2023/07/28 03:07:05;;;;;;;23.30;15.25;;;18.90;99.90;;;;;;5114115;28;20072;-81
2023/07/28 03:09:31;;;;;;;21.48;14.45;;;18.90;99.90;;;;;;5095558;28;20079;-81
2023/07/28 03:11:57;;;;;;;24.13;15.60;;;18.90;99.90;;;;;;5113525;28;20027;-80
2023/07/28 03:14:22;;;;;;;23.52;14.73;;;18.90;99.90;;;;;;5114053;28;20032;-80
2023/07/28 03:16:48;;;;;;;24.80;15.38;;;18.90;99.90;;;;;;5113733;28;20365;-81
2023/07/28 03:19:13;;;;;;;24.88;15.80;;;18.90;99.90;;;;;;5099023;28;20456;-80
2023/07/28 03:21:39;;;;;;;27.75;16.23;;;18.90;99.90;;;;;;5117306;28;20081;-80
2023/07/28 03:24:05;;;;;;;24.10;15.13;;;19.00;99.90;;;;;;5117857;28;20058;-80
2023/07/28 03:26:30;;;;;;;25.88;15.93;;;19.00;99.90;;;;;;5117416;28;20036;-80
2023/07/28 03:28:56;;;;;;;27.13;16.67;;;19.00;99.90;;;;;;5117342;28;20036;-81
2023/07/28 03:31:22;;;;;;;28.25;16.80;;;19.00;99.90;;;;;;5117509;28;20360;-81
2023/07/28 03:33:48;;;;;;;28.20;16.20;;;19.00;99.90;;;;;;5117472;28;20032;-80
2023/07/28 03:36:13;;;;;;;31.95;18.35;;;19.00;99.90;;;;;;5099812;28;20428;-81
2023/07/28 03:38:39;;;;;;;28.17;16.80;;;19.00;99.90;;;;;;5117143;28;20036;-80
2023/07/28 03:41:06;;;;;;;30.60;17.38;;;19.00;99.90;;;;;;5082291;28;20062;-81
2023/07/28 03:43:32;;;;;;;28.88;17.77;;;19.00;99.90;;;;;;5099284;28;20038;-80
2023/07/28 03:45:58;;;;;;;32.83;17.27;;;19.00;99.90;;;;;;5117106;28;20031;-81
2023/07/28 03:48:23;;;;;;;28.50;18.00;;;19.00;99.90;;;;;;5117056;28;20027;-81
2023/07/28 03:50:49;;;;;;;29.80;17.65;;;19.00;99.90;;;;;;5117178;28;20035;-80
2023/07/28 03:53:15;;;;;;;34.22;18.40;;;19.00;99.90;;;;;;5116942;28;20024;-81
2023/07/28 03:55:40;;;;;;;35.15;19.35;;;19.00;99.90;;;;;;5098720;28;20031;-80
2023/07/28 03:58:06;;;;;;;31.75;18.27;;;19.00;99.90;;;;;;5116837;28;20464;-80
2023/07/28 04:00:31;;;;;;;38.17;18.98;;;19.00;99.90;;;;;;5098031;28;20062;-80
2023/07/28 04:02:57;;;;;;;34.58;19.60;;;19.00;99.90;;;;;;5116510;28;20031;-82
2023/07/28 04:05:23;;;;;;;40.80;20.10;;;19.00;99.90;;;;;;5116684;28;20028;-79
2023/07/28 04:07:48;;;;;;;40.25;20.67;;;19.00;99.90;;;;;;5098488;28;20061;-79
2023/07/28 04:10:14;;;;;;;40.45;21.67;;;18.90;99.90;;;;;;5116283;28;20472;-79
2023/07/28 04:12:40;;;;;;;39.10;21.13;;;18.90;99.90;;;;;;5116579;28;20473;-79
2023/07/28 04:15:06;;;;;;;40.38;21.35;;;18.90;99.90;;;;;;5116552;28;20357;-79
2023/07/28 04:17:31;;;;;;;37.63;21.38;;;18.90;99.90;;;;;;5098305;28;20027;-79
2023/07/28 04:19:57;;;;;;;47.13;21.85;;;18.90;99.90;;;;;;5116462;28;20092;-79
2023/07/28 04:22:23;;;;;;;44.15;22.92;;;18.90;99.90;;;;;;5116686;28;20396;-79
2023/07/28 04:24:49;;;;;;;44.65;21.33;;;18.90;99.90;;;;;;5116810;28;20040;-78
2023/07/28 04:27:15;;;;;;;39.08;21.75;;;18.90;99.90;;;;;;5116302;28;20030;-80
2023/07/28 04:29:41;;;;;;;41.15;22.10;;;18.90;99.90;;;;;;5115474;28;20093;-78
2023/07/28 04:32:07;;;;;;;45.72;21.90;;;18.90;99.90;;;;;;5116515;28;20073;-79
2023/07/28 04:34:34;;;;;;;44.13;21.55;;;18.80;99.90;;;;;;5116403;28;20478;-79
2023/07/28 04:36:59;;;;;;;42.47;21.98;;;18.90;99.90;;;;;;5116038;28;20024;-79
2023/07/28 04:39:25;;;;;;;44.58;23.10;;;18.90;99.90;;;;;;5116264;28;20032;-79
2023/07/28 04:41:50;;;;;;;43.83;22.77;;;18.90;99.90;;;;;;5115823;28;20454;-85
2023/07/28 04:44:17;;;;;;;44.28;23.00;;;18.90;99.90;;;;;;5116029;28;20111;-84
2023/07/28 04:46:43;;;;;;;43.95;22.30;;;18.90;99.90;;;;;;5115958;28;20024;-84
2023/07/28 04:49:08;;;;;;;42.92;22.65;;;18.90;99.90;;;;;;5097917;28;20031;-85
2023/07/28 04:51:34;;;;;;;38.67;21.20;;;18.90;99.90;;;;;;5116071;28;20048;-82
2023/07/28 04:54:01;;;;;;;47.63;24.27;;;18.90;99.90;;;;;;5115458;28;20449;-83
2023/07/28 04:56:26;;;;;;;48.60;23.75;;;18.90;99.90;;;;;;5115425;28;20031;-83
2023/07/28 04:58:52;;;;;;;45.20;22.95;;;18.90;99.90;;;;;;5115787;28;20081;-83
2023/07/28 05:01:18;;;;;;;43.25;22.60;;;18.90;99.90;;;;;;5115430;28;20047;-85
2023/07/28 05:03:43;;;;;;;50.00;23.33;;;18.90;99.90;;;;;;5097341;28;20039;-82
2023/07/28 05:06:09;;;;;;;54.10;24.13;;;18.90;99.90;;;;;;5097383;28;20375;-80
2023/07/28 05:08:36;;;;;;;47.35;24.27;;;18.90;99.90;;;;;;5115494;28;20044;-80
2023/07/28 05:11:01;;;;;;;49.90;24.40;;;18.90;99.90;;;;;;5116030;28;20038;-82
2023/07/28 05:13:27;;;;;;;52.00;24.15;;;18.90;99.90;;;;;;5097080;28;20028;-81
2023/07/28 05:15:53;;;;;;;51.42;25.55;;;18.90;99.90;;;;;;5097853;28;20400;-81
2023/07/28 05:18:18;;;;;;;46.28;23.10;;;18.90;99.90;;;;;;5115520;28;20027;-81
2023/07/28 05:20:44;;;;;;;43.83;23.25;;;18.80;99.90;;;;;;5097144;28;20036;-82
2023/07/28 05:23:09;;;;;;;49.38;24.58;;;18.80;99.90;;;;;;5115335;28;20024;-81
2023/07/28 05:25:35;;;;;;;50.47;24.80;;;18.80;99.90;;;;;;5115327;28;20035;-81
2023/07/28 05:28:00;;;;;;;54.95;26.50;;;18.90;99.90;;;;;;5097539;28;20387;-81
2023/07/28 05:30:26;;;;;;;51.38;24.77;;;18.90;99.90;;;;;;5115505;28;20031;-81
2023/07/28 05:32:54;;;;;;;58.55;26.55;;;18.90;99.90;;;;;;5096914;28;20046;-82
2023/07/28 05:35:20;;;;;;;47.10;25.42;;;18.90;99.90;;;;;;5115372;28;20027;-82
2023/07/28 05:37:46;;;;;;;53.88;25.83;;;18.90;99.90;;;;;;5114885;28;20089;-81
2023/07/28 05:40:12;;;;;;;54.95;26.30;;;18.90;99.90;;;;;;5114636;28;20028;-81
2023/07/28 05:42:38;;;;;;;53.75;25.45;;;18.90;99.90;;;;;;5114969;28;20119;-81
2023/07/28 05:45:04;;;;;;;59.65;27.75;;;18.90;99.90;;;;;;5115106;28;20454;-81
2023/07/28 05:47:29;;;;;;;52.67;26.67;;;18.90;99.90;;;;;;5096289;28;20038;-81
2023/07/28 05:49:55;;;;;;;50.15;26.35;;;18.90;99.90;;;;;;5114504;28;20114;-82
2023/07/28 05:52:22;;;;;;;46.85;26.23;;;18.90;99.90;;;;;;5114649;28;20036;-82
2023/07/28 05:54:48;;;;;;;54.03;24.35;;;18.90;99.90;;;;;;5114616;28;20031;-80
2023/07/28 05:57:13;;;;;;;50.40;24.63;;;18.90;99.90;;;;;;5114375;28;20383;-81
2023/07/28 05:59:39;;;;;;;44.00;23.52;;;18.90;99.90;;;;;;5114428;28;20467;-82
2023/07/28 06:02:05;;;;;;;43.65;23.63;;;18.90;99.90;;;;;;5095649;28;20047;-81
2023/07/28 06:04:31;;;;;;;37.95;22.35;;;18.90;99.90;;;;;;5114670;28;20051;-82
2023/07/28 06:06:57;;;;;;;46.75;24.17;;;18.90;99.90;;;;;;5096775;28;20036;-81
2023/07/28 06:09:22;;;;;;;42.30;23.48;;;18.90;99.90;;;;;;5095793;28;20480;-82
2023/07/28 06:11:48;;;;;;;40.67;22.02;;;19.00;99.90;;;;;;5096316;28;20047;-83
2023/07/28 06:14:13;;;;;;;39.70;20.80;;;18.90;99.90;;;;;;5114659;28;20027;-81
2023/07/28 06:16:39;;;;;;;38.72;22.17;;;19.00;99.90;;;;;;5114563;28;20135;-81
2023/07/28 06:19:05;;;;;;;38.72;21.45;;;19.00;99.90;;;;;;5114936;28;20052;-80
2023/07/28 06:21:31;;;;;;;41.40;22.45;;;19.00;99.90;;;;;;5097169;28;20036;-81
2023/07/28 06:23:56;;;;;;;41.95;23.05;;;19.00;99.90;;;;;;5114629;28;20110;-81
2023/07/28 06:26:22;;;;;;;35.55;21.70;;;19.00;99.90;;;;;;5095994;28;20051;-79
2023/07/28 06:28:47;;;;;;;36.90;22.35;;;19.00;99.90;;;;;;5113823;28;20027;-80
2023/07/28 06:31:13;;;;;;;38.05;21.63;;;19.00;99.90;;;;;;5113740;28;20027;-80
2023/07/28 06:33:39;;;;;;;33.85;21.63;;;19.00;99.90;;;;;;5114407;28;20099;-82
2023/07/28 06:36:05;;;;;;;35.05;20.48;;;19.00;99.90;;;;;;5114520;28;20055;-88
2023/07/28 06:38:31;;;;;;;39.60;21.17;;;19.00;99.90;;;;;;5114796;28;20463;-85
2023/07/28 06:40:56;;;;;;;31.35;18.85;;;19.00;99.90;;;;;;5114344;28;20028;-82
2023/07/28 06:43:22;;;;;;;30.77;19.52;;;19.00;99.90;;;;;;5114741;28;20424;-84
2023/07/28 06:45:51;;;;;;;36.58;21.30;;;19.00;99.90;;;;;;5114537;28;20034;-83
2023/07/28 06:48:16;;;;;;;37.88;21.48;;;19.10;99.90;;;;;;5114421;28;20096;-84
2023/07/28 06:50:42;;;;;;;39.58;22.70;;;19.10;99.90;;;;;;5114529;28;20031;-84
2023/07/28 06:53:08;;;;;;;38.42;22.90;;;19.10;99.90;;;;;;5116484;28;20061;-83
2023/07/28 06:55:34;;;;;;;43.30;24.33;;;19.10;99.90;;;;;;5118540;28;20471;-83
2023/07/28 06:58:00;;;;;;;40.53;21.98;;;19.10;99.90;;;;;;5100695;28;20028;-85
2023/07/28 07:00:25;;;;;;;40.75;24.48;;;19.10;99.90;;;;;;5119088;28;20111;-87
2023/07/28 07:02:51;;;;;;;38.20;21.67;;;19.10;99.90;;;;;;5100488;28;20039;-81
2023/07/28 07:05:16;;;;;;;36.95;22.17;;;19.10;99.90;;;;;;5118061;28;20024;-82
2023/07/28 07:07:42;;;;;;;43.47;23.45;;;19.10;99.90;;;;;;5117831;28;20024;-85
2023/07/28 07:10:08;;;;;;;41.97;23.48;;;19.10;99.90;;;;;;5118022;28;20028;-84
2023/07/28 07:12:34;;;;;;;40.08;21.75;;;19.10;99.90;;;;;;5117437;28;20468;-85
2023/07/28 07:14:59;;;;;;;44.35;22.88;;;19.10;99.90;;;;;;5099646;28;20032;-82
2023/07/28 07:17:25;;;;;;;39.47;23.25;;;19.20;99.90;;;;;;5117721;28;20447;-82
2023/07/28 07:19:50;;;;;;;45.55;23.08;;;19.20;99.90;;;;;;5117679;28;20466;-85
2023/07/28 07:22:16;;;;;;;35.80;21.88;;;19.20;99.90;;;;;;5117873;28;20028;-84
2023/07/28 07:24:42;;;;;;;41.20;23.05;;;19.20;99.90;;;;;;5117597;28;20059;-86
2023/07/28 07:27:10;;;;;;;40.05;21.92;;;19.20;99.90;;;;;;5117549;28;20395;-87
2023/07/28 07:29:39;;;;;;;35.17;21.35;;;19.30;99.90;;;;;;5099529;28;20091;-79
2023/07/28 07:32:06;;;;;;;36.10;21.60;;;19.30;99.90;;;;;;5100393;28;20028;-86
2023/07/28 07:34:33;;;;;;;31.98;20.42;;;19.30;99.90;;;;;;5120729;28;20027;-88
2023/07/28 07:36:58;;;;;;;31.48;18.83;;;19.30;99.90;;;;;;5103986;28;20058;-86
2023/07/28 07:39:24;;;;;;;36.33;20.98;;;19.30;99.90;;;;;;5106314;28;20031;-88
2023/07/28 07:41:49;;;;;;;28.25;18.05;;;19.30;99.90;;;;;;5085622;28;20050;-87
2023/07/28 07:44:15;;;;;;;27.83;17.35;;;19.30;99.90;;;;;;5100520;28;20027;-78
2023/07/28 07:46:41;;;;;;;28.50;16.98;;;19.30;99.90;;;;;;5099873;28;20027;-82
2023/07/28 07:49:06;;;;;;;28.10;17.55;;;19.30;99.90;;;;;;5099325;28;20088;-84
2023/07/28 07:51:33;;;;;;;25.50;17.05;;;19.40;99.90;;;;;;5117430;28;20422;-87
2023/07/28 07:54:01;;;;;;;23.10;15.52;;;19.40;99.90;;;;;;5118734;28;20065;-83
2023/07/28 07:56:27;;;;;;;26.80;16.42;;;19.40;99.90;;;;;;5117719;28;20039;-85
2023/07/28 07:58:53;;;;;;;22.55;15.38;;;19.40;99.90;;;;;;5118492;28;20080;-85
2023/07/28 08:01:18;;;;;;;22.20;14.88;;;19.50;99.90;;;;;;5096793;28;20052;-86
2023/07/28 08:03:44;;;;;;;24.75;15.10;;;19.40;99.90;;;;;;5098630;28;20376;-84
2023/07/28 08:06:11;;;;;;;23.23;15.23;;;19.50;99.90;;;;;;5096890;28;20061;-84
2023/07/28 08:08:37;;;;;;;22.20;14.50;;;19.50;99.90;;;;;;5096708;28;20039;-84
2023/07/28 08:11:03;;;;;;;22.25;14.40;;;19.50;99.90;;;;;;5097284;28;20378;-84
2023/07/28 08:13:28;;;;;;;24.80;14.80;;;19.60;99.90;;;;;;5096415;28;20070;-81
2023/07/28 08:15:54;;;;;;;21.55;15.15;;;19.70;99.90;;;;;;5096221;28;20069;-81
2023/07/28 08:18:19;;;;;;;24.45;14.88;;;19.70;99.90;;;;;;5096038;28;20414;-82
2023/07/28 08:20:45;;;;;;;24.15;15.07;;;19.70;99.90;;;;;;5078354;28;20408;-82
2023/07/28 08:23:11;;;;;;;24.80;14.52;;;19.70;99.90;;;;;;5095981;28;20491;-83
2023/07/28 08:25:37;;;;;;;23.08;15.52;;;19.80;99.90;;;;;;5095865;28;20036;-82
2023/07/28 08:28:03;;;;;;;22.95;15.82;;;19.80;99.90;;;;;;5096357;28;20028;-84
2023/07/28 08:30:28;;;;;;;23.58;16.77;;;19.80;99.90;;;;;;5096117;28;20051;-84
2023/07/28 08:32:54;;;;;;;30.05;16.90;;;19.80;99.90;;;;;;5095481;28;20506;-83
2023/07/28 08:35:19;;;;;;;25.27;17.25;;;19.80;99.90;;;;;;5079233;28;20032;-89
2023/07/28 08:37:45;;;;;;;26.15;16.00;;;19.80;99.90;;;;;;5097366;28;20054;-88
2023/07/28 08:40:12;;;;;;;24.02;17.15;;;19.80;99.90;;;;;;5097328;28;20127;-88
2023/07/28 08:42:39;;;;;;;22.83;15.50;;;19.80;99.90;;;;;;5098662;28;20028;-91
2023/07/28 08:45:06;;;;;;;25.23;17.17;;;19.80;99.90;;;;;;5100657;28;20036;-86
2023/07/28 08:47:32;;;;;;;28.08;16.95;;;19.80;99.90;;;;;;5099974;28;20016;-76
2023/07/28 08:49:58;;;;;;;23.95;16.70;;;19.80;99.90;;;;;;5102656;28;20028;-89
2023/07/28 08:52:24;;;;;;;21.02;15.75;;;19.80;99.90;;;;;;5097223;28;20119;-82
2023/07/28 08:54:50;;;;;;;20.88;14.60;;;19.90;99.90;;;;;;5095578;28;20495;-85
2023/07/28 08:57:16;;;;;;;20.10;15.43;;;19.90;99.90;;;;;;5095733;28;20024;-85
2023/07/28 08:59:47;;;;;;;22.25;15.00;;;19.90;99.90;;;;;;5094513;28;20039;-88
2023/07/28 09:02:15;;;;;;;19.88;13.73;;;19.90;99.90;;;;;;5113273;28;20077;-87
2023/07/28 09:04:41;;;;;;;20.17;14.25;;;19.90;99.90;;;;;;5116521;28;20114;-86
2023/07/28 09:07:07;;;;;;;21.92;15.07;;;20.00;99.90;;;;;;5098092;28;20383;-86
2023/07/28 09:09:33;;;;;;;16.25;12.88;;;19.90;99.90;;;;;;5116639;28;20042;-84
2023/07/28 09:12:00;;;;;;;18.45;12.73;;;19.90;99.90;;;;;;5115921;28;20035;-87
2023/07/28 09:14:25;;;;;;;20.85;13.48;;;19.90;99.90;;;;;;5116080;28;20066;-87
2023/07/28 09:16:52;;;;;;;21.05;13.25;;;19.90;99.90;;;;;;5115567;28;20468;-86
2023/07/28 09:19:20;;;;;;;22.27;13.38;;;19.90;99.90;;;;;;5097546;28;20080;-84
2023/07/28 09:21:58;;;;;;;25.65;14.38;;;19.90;99.90;;;;;;5117630;28;20028;-85
2023/07/28 09:24:31;;;;;;;24.05;14.35;;;19.90;99.90;;;;;;5117706;28;20020;-78
2023/07/28 09:26:58;;;;;;;19.20;12.85;;;19.90;99.90;;;;;;5097557;28;20032;-84
2023/07/28 09:29:25;;;;;;;18.27;13.57;;;19.90;99.90;;;;;;5116071;28;20063;-85
2023/07/28 09:31:52;;;;;;;20.45;13.93;;;20.00;99.90;;;;;;5115951;28;20054;-85
2023/07/28 09:34:26;;;;;;;20.15;13.65;;;20.00;99.90;;;;;;5097816;28;20039;-85
2023/07/28 09:36:56;;;;;;;19.25;13.55;;;20.10;99.90;;;;;;5115278;28;20079;-85
2023/07/28 09:39:23;;;;;;;17.42;13.15;;;20.20;99.90;;;;;;5115147;28;20026;-86
2023/07/28 09:41:49;;;;;;;22.40;14.18;;;20.30;99.90;;;;;;5115593;28;20050;-84
2023/07/28 09:44:15;;;;;;;18.98;13.27;;;20.40;99.90;;;;;;5115259;28;20023;-83
2023/07/28 09:46:55;;;;;;;18.10;12.88;;;20.60;99.90;;;;;;5115174;28;20052;-85
2023/07/28 09:49:24;;;;;;;16.73;12.07;;;20.70;99.90;;;;;;5115046;28;20105;-86
2023/07/28 09:51:54;;;;;;;17.00;12.57;;;20.80;99.90;;;;;;5115350;28;20139;-85
2023/07/28 09:54:29;;;;;;;18.73;12.85;;;20.90;99.90;;;;;;5114992;28;20031;-79
2023/07/28 09:56:59;;;;;;;15.07;12.00;;;21.00;99.90;;;;;;5115380;28;20552;-86
2023/07/28 09:59:38;;;;;;;17.20;12.00;;;21.00;99.90;;;;;;5114895;28;20042;-87
2023/07/28 10:02:08;;;;;;;16.15;11.50;;;21.00;99.90;;;;;;5096634;28;20126;-87
2023/07/28 10:04:34;;;;;;;18.90;12.48;;;21.00;99.90;;;;;;5115195;28;20019;-85
2023/07/28 10:07:01;;;;;;;15.68;12.23;;;20.90;99.90;;;;;;5116055;28;20433;-84
2023/07/28 10:09:30;;;;;;;18.02;13.38;;;20.90;99.90;;;;;;5117637;28;20085;-77
2023/07/28 10:11:56;;;;;;;17.88;13.27;;;20.90;99.90;;;;;;5118091;28;20079;-88
2023/07/28 10:14:34;;;;;;;15.95;12.10;;;21.00;99.90;;;;;;5119039;28;20055;-88
2023/07/28 10:17:01;;;;;;;16.00;12.10;;;21.10;99.90;;;;;;5117368;28;20102;-88
2023/07/28 10:19:36;;;;;;;15.27;10.85;;;21.40;99.90;;;;;;5119057;28;20057;-89
2023/07/28 10:22:11;;;;;;;16.58;11.98;;;21.60;99.90;;;;;;5119521;28;20035;-89
2023/07/28 10:24:55;;;;;;;16.83;11.05;;;21.90;99.90;;;;;;5119933;28;20027;-88
2023/07/28 10:27:36;;;;;;;12.88;10.50;;;22.00;99.90;;;;;;5117230;28;20035;-87
2023/07/28 10:30:04;;;;;;;15.35;12.55;;;22.10;99.90;;;;;;5118758;28;20063;-88
2023/07/28 10:32:50;;;;;;;14.88;12.13;;;22.10;99.90;;;;;;5117777;28;20039;-87
2023/07/28 10:35:21;;;;;;;16.73;10.63;;;22.20;99.90;;;;;;5100943;28;20447;-89
2023/07/28 10:37:47;;;;;;;13.32;10.38;;;22.10;99.90;;;;;;5116757;28;20349;-88
2023/07/28 10:40:29;;;;;;;14.43;11.10;;;22.10;99.90;;;;;;5116185;28;20024;-85
2023/07/28 10:42:55;;;;;;;13.75;11.82;;;22.00;99.90;;;;;;5097368;28;20027;-88
2023/07/28 10:45:27;;;;;;;11.93;10.52;;;22.10;99.90;;;;;;5115659;28;20044;-88
2023/07/28 10:47:55;;;;;;;14.20;10.30;;;22.00;99.90;;;;;;5116061;28;20034;-86
2023/07/28 10:50:21;;;;;;;14.35;10.90;;;22.00;99.90;;;;;;5096852;28;20418;-85
2023/07/28 10:52:47;;;;;;;11.90;10.48;;;22.00;99.90;;;;;;5116264;28;20053;-84
2023/07/28 10:55:14;;;;;;;14.10;11.27;;;22.00;99.90;;;;;;5115821;28;20084;-87
2023/07/28 10:57:44;;;;;;;11.55;10.23;;;22.20;99.90;;;;;;5115744;28;20156;-89
2023/07/28 11:00:12;;;;;;;12.27;9.98;;;22.40;99.90;;;;;;5116911;28;20028;-87
2023/07/28 11:02:58;;;;;;;12.50;10.57;;;22.60;99.90;;;;;;5100496;28;20103;-88
2023/07/28 11:05:26;;;;;;;13.98;11.23;;;22.70;99.90;;;;;;5098458;28;20067;-87
2023/07/28 11:07:58;;;;;;;16.02;10.82;;;22.70;99.90;;;;;;5116028;28;20040;-88
2023/07/28 11:10:27;;;;;;;14.20;11.10;;;22.70;99.90;;;;;;5115730;28;20040;-89
2023/07/28 11:12:53;;;;;;;15.65;11.60;;;22.70;99.90;;;;;;5115159;28;20055;-90
2023/07/28 11:15:19;;;;;;;13.30;11.27;;;22.60;99.90;;;;;;5119284;28;20035;-84
2023/07/28 11:17:49;;;;;;;14.70;12.15;;;22.60;99.90;;;;;;5118160;28;20041;-89
2023/07/28 11:20:19;;;;;;;14.30;10.35;;;22.50;99.90;;;;;;5118773;28;20027;-86
2023/07/28 11:22:46;;;;;;;13.65;10.27;;;22.40;99.90;;;;;;5116330;28;20148;-87
2023/07/28 11:25:13;;;;;;;14.85;9.82;;;22.40;99.90;;;;;;5126687;28;20020;-89
2023/07/28 11:27:39;;;;;;;12.23;9.45;;;22.40;99.90;;;;;;5125251;28;20195;-88
2023/07/28 11:30:13;;;;;;;11.23;9.70;;;22.40;99.90;;;;;;5122859;28;20027;-87
2023/07/28 11:32:38;;;;;;;12.35;10.07;;;22.50;99.90;;;;;;5121713;28;20479;-88
2023/07/28 11:35:06;;;;;;;12.30;10.85;;;22.50;99.90;;;;;;5106682;28;20061;-87
2023/07/28 11:37:33;;;;;;;11.82;10.60;;;22.60;99.90;;;;;;5125972;28;20028;-82
2023/07/28 11:40:00;;;;;;;14.35;11.32;;;22.70;99.90;;;;;;5111511;28;20103;-90
2023/07/28 11:42:30;;;;;;;13.00;11.15;;;22.70;99.90;;;;;;5110355;28;20023;-87
2023/07/28 11:44:56;;;;;;;14.27;11.90;;;22.80;99.90;;;;;;5093877;28;20032;-91
2023/07/28 11:47:21;;;;;;;15.20;11.30;;;22.80;99.90;;;;;;5092681;28;20038;-90
2023/07/28 11:49:48;;;;;;;13.80;11.48;;;22.80;99.90;;;;;;5108977;28;20055;-88
2023/07/28 11:52:15;;;;;;;13.13;10.57;;;22.80;99.90;;;;;;5126719;28;20111;-87
2023/07/28 11:54:41;;;;;;;12.93;10.43;;;22.90;99.90;;;;;;5124548;28;20032;-87
2023/07/28 11:57:08;;;;;;;11.57;10.13;;;22.90;99.90;;;;;;5125627;28;20023;-88
2023/07/28 11:59:35;;;;;;;10.48;9.30;;;23.00;99.90;;;;;;5088428;28;20539;-88
2023/07/28 12:02:05;;;;;;;10.13;9.05;;;23.00;99.90;;;;;;5102405;28;20051;-88
2023/07/28 12:04:36;;;;;;;13.75;10.10;;;23.00;99.90;;;;;;5103164;28;20035;-88
2023/07/28 12:07:12;;;;;;;13.93;9.68;;;23.10;99.90;;;;;;5118568;28;20085;-88
2023/07/28 12:09:48;;;;;;;12.32;10.13;;;23.10;99.90;;;;;;5119204;28;20024;-88
2023/07/28 12:12:16;;;;;;;9.45;8.48;;;23.10;99.90;;;;;;5118282;28;20036;-88
2023/07/28 12:14:42;;;;;;;11.27;8.63;;;23.10;99.90;;;;;;5118756;28;20027;-85
2023/07/28 12:17:19;;;;;;;11.15;9.63;;;23.10;99.90;;;;;;5117818;28;20019;-88
2023/07/28 12:20:14;;;;;;;9.15;8.23;;;23.10;99.90;;;;;;5100607;28;20516;-87
2023/07/28 12:22:41;;;;;;;9.10;8.20;;;23.20;99.90;;;;;;5118197;28;20460;-87
2023/07/28 12:25:08;;;;;;;13.95;10.90;;;23.20;99.90;;;;;;5117686;28;20051;-85
2023/07/28 12:27:33;;;;;;;12.63;10.27;;;23.30;99.90;;;;;;5118205;28;20031;-87